Wilmington, New York
Current Conditions -  °F | °C
As of 2:51 PM on Thursday 23 Oct 2014 (Local Time) from KSLK Reporting Station
Haze Haze  
Wind Chill: 36°   Ceiling: 800
Heat Index: 42°   Visibility: 2.5mi
Dew Point: 40°   Wind: 10mph
Humidity: 92%   Direction: 30°NNE
Pressure: 29.91"   Gusts: NA
Location:  44.39°N, 73.82°W
Report Text: KSLK 231851Z AUTO 03009KT 2 1/2SM BR BKN008 OVC012 06/04 A2991 RMK AO2 RAE06 CIG 006V010 SLP140 P0000 T00560044
Loading
Personal Weather Stations






























Interactive Weather Map New forecast layout! Learn more

10-Day Weather Forecast

Advertisements
Track Severe Weather on mobile